Time;durP1;ratioP1;P1;durP2;ratioP2;P2;SDS_P1;SDS_P2;PMS_P1;PMS_P2;Temp;Humidity;BMP_temperature;BMP_pressure;BME280_temperature;BME280_humidity;BME280_pressure;Samples;Min_cycle;Max_cycle;Signal;HPM_P1;HPM_P2
2022/01/20 00:01:58;;;;;;;25.40;17.40;;;;;;;-0.28;67.29;101283.72;4974102;28;20042;-70
2022/01/20 00:04:41;;;;;;;35.08;16.60;;;;;;;0.06;66.46;101303.72;4993313;28;20069;-71
2022/01/20 00:28:17;;;;;;;27.48;14.85;;;;;;;-0.25;67.82;101278.78;4992294;28;20034;-71
2022/01/20 00:33:41;;;;;;;23.35;15.18;;;;;;;-0.06;67.18;101280.69;4989800;28;20483;-70
2022/01/20 00:39:33;;;;;;;25.52;16.33;;;;;;;0.02;67.51;101251.06;4977942;28;20054;-69
2022/01/20 00:42:20;;;;;;;25.17;15.48;;;;;;;0.11;66.81;101264.47;4987467;28;20093;-70
2022/01/20 00:45:08;;;;;;;24.00;15.48;;;;;;;-0.01;66.99;101256.94;4982282;28;20038;-71
2022/01/20 00:47:34;;;;;;;25.65;14.48;;;;;;;-0.10;67.65;101230.63;4993597;28;20034;-71
2022/01/20 00:49:59;;;;;;;36.15;16.42;;;;;;;-0.13;67.68;101229.56;4993001;28;20038;-71
2022/01/20 00:52:25;;;;;;;29.92;15.65;;;;;;;-0.02;67.62;101238.81;5033967;28;20481;-70
2022/01/20 00:55:24;;;;;;;32.22;18.17;;;;;;;0.04;67.13;101236.56;5004196;28;20113;-70
2022/01/20 00:57:49;;;;;;;29.95;15.50;;;;;;;0.01;66.93;101220.03;4990977;28;20057;-71
2022/01/20 01:00:16;;;;;;;26.52;14.38;;;;;;;-0.18;67.18;101212.97;4998172;28;20470;-70
2022/01/20 01:02:41;;;;;;;28.60;15.40;;;;;;;-0.21;67.49;101211.09;4987507;28;20066;-71
2022/01/20 01:05:09;;;;;;;30.90;16.02;;;;;;;-0.37;68.18;101221.34;4978095;28;20081;-72
2022/01/20 01:10:00;;;;;;;22.90;15.15;;;;;;;-0.21;68.15;101211.09;4993437;28;20034;-71
2022/01/20 01:12:40;;;;;;;23.95;16.35;;;;;;;-0.35;67.41;101193.94;4993485;28;20026;-75
2022/01/20 01:15:13;;;;;;;22.25;14.50;;;;;;;-0.46;68.33;101203.66;4995686;28;20474;-71
2022/01/20 01:21:10;;;;;;;23.38;13.30;;;;;;;-0.65;68.85;101193.97;4989086;28;20049;-71
2022/01/20 01:24:20;;;;;;;26.08;14.32;;;;;;;-0.44;68.34;101195.22;4994055;28;20038;-71
2022/01/20 01:35:08;;;;;;;20.35;13.45;;;;;;;-0.50;68.22;101148.44;4992942;28;20031;-69
2022/01/20 01:40:21;;;;;;;35.35;15.15;;;;;;;-0.34;68.18;101160.50;4991572;28;20041;-70
2022/01/20 01:42:49;;;;;;;22.73;14.48;;;;;;;-0.70;68.77;101131.88;4989307;28;20425;-70
2022/01/20 01:46:07;;;;;;;23.35;15.15;;;;;;;-0.49;68.69;101147.66;4992731;28;20192;-70
2022/01/20 01:48:32;;;;;;;20.02;12.95;;;;;;;-0.66;68.79;101128.69;4992362;28;20512;-70
2022/01/20 01:51:01;;;;;;;29.17;16.10;;;;;;;-0.72;69.20;101117.13;4993096;28;20053;-71
2022/01/20 01:53:27;;;;;;;27.65;16.63;;;;;;;-1.05;69.99;101116.97;4997754;28;20047;-70
2022/01/20 01:55:53;;;;;;;21.75;15.07;;;;;;;-0.97;70.12;101115.72;4987614;28;20039;-70
2022/01/20 01:58:19;;;;;;;30.30;16.25;;;;;;;-0.77;69.42;101126.25;4992527;28;20042;-70
2022/01/20 02:00:45;;;;;;;29.83;16.23;;;;;;;-0.63;69.54;101130.53;4993535;28;20026;-71
2022/01/20 02:03:41;;;;;;;28.58;15.32;;;;;;;-0.82;69.63;101125.13;4991931;28;20050;-70
2022/01/20 02:09:28;;;;;;;26.52;13.80;;;;;;;-1.01;70.01;101098.28;4980988;28;20051;-71
2022/01/20 02:20:51;;;;;;;25.48;15.63;;;;;;;-0.95;70.28;101088.34;4993407;28;20060;-69
2022/01/20 02:23:17;;;;;;;27.58;16.40;;;;;;;-1.01;70.36;101088.00;4992771;28;20057;-72
2022/01/20 02:25:43;;;;;;;25.83;16.73;;;;;;;-0.89;70.12;101087.81;5001623;28;20042;-71
2022/01/20 02:28:10;;;;;;;25.33;14.70;;;;;;;-0.94;70.36;101089.25;4988988;28;20049;-79
2022/01/20 02:30:38;;;;;;;23.20;14.02;;;;;;;-1.08;70.22;101068.75;4993303;28;20033;-71
2022/01/20 02:33:14;;;;;;;25.38;14.20;;;;;;;-1.04;70.77;101084.38;4991649;28;20070;-71
2022/01/20 02:36:15;;;;;;;25.83;16.45;;;;;;;-0.97;70.29;101068.47;4993781;28;20121;-70
2022/01/20 02:39:07;;;;;;;28.15;15.57;;;;;;;-1.27;70.97;101055.59;4992291;28;20070;-71
2022/01/20 02:46:57;;;;;;;23.95;13.57;;;;;;;-1.42;71.35;101042.75;4988542;28;19977;-70
2022/01/20 02:49:22;;;;;;;19.23;13.25;;;;;;;-1.22;70.82;101037.84;4985881;28;20038;-71
2022/01/20 02:51:55;;;;;;;24.65;13.40;;;;;;;-1.24;71.30;101053.22;4991895;28;20109;-71
2022/01/20 02:54:22;;;;;;;24.63;14.83;;;;;;;-1.25;71.00;101042.84;4992288;28;20034;-71
2022/01/20 02:56:49;;;;;;;31.50;16.45;;;;;;;-1.19;70.66;101059.53;4990413;28;20549;-72
2022/01/20 02:59:14;;;;;;;29.23;13.48;;;;;;;-1.25;70.41;101042.84;4992913;28;20486;-70
2022/01/20 03:01:40;;;;;;;24.98;15.55;;;;;;;-1.16;70.54;101051.09;4990797;28;20042;-70
2022/01/20 03:07:22;;;;;;;27.70;15.30;;;;;;;-1.15;70.42;101021.94;4983246;28;20068;-71
2022/01/20 03:09:48;;;;;;;26.95;15.05;;;;;;;-1.25;70.73;101019.66;4991418;28;20474;-72
2022/01/20 03:12:13;;;;;;;21.02;15.43;;;;;;;-1.16;70.68;101031.38;4988144;28;20367;-70
2022/01/20 03:14:39;;;;;;;32.83;18.60;;;;;;;-1.34;71.33;101026.03;4973531;28;20039;-72
2022/01/20 03:17:04;;;;;;;24.67;15.93;;;;;;;-1.33;71.42;101019.22;4992014;28;20096;-70
2022/01/20 03:19:30;;;;;;;24.92;15.13;;;;;;;-1.35;71.19;100995.09;4991039;28;20038;-70
2022/01/20 03:21:56;;;;;;;30.88;15.48;;;;;;;-1.15;71.13;101022.84;4983480;28;20035;-71
2022/01/20 03:24:21;;;;;;;29.52;15.40;;;;;;;-1.38;71.29;101012.91;4976889;28;20506;-71
2022/01/20 03:26:47;;;;;;;26.25;14.30;;;;;;;-1.30;71.18;101028.00;4988572;28;20037;-70
2022/01/20 03:29:31;;;;;;;22.48;14.32;;;;;;;-1.42;71.78;101019.56;4987222;28;20427;-72
2022/01/20 03:31:57;;;;;;;22.65;14.93;;;;;;;-1.56;71.92;100997.31;4977974;28;20046;-71
2022/01/20 03:34:22;;;;;;;25.50;14.52;;;;;;;-1.44;71.78;101018.59;4989519;28;20434;-71
2022/01/20 03:36:48;;;;;;;26.27;14.85;;;;;;;-1.48;72.07;101016.63;4990424;28;20364;-70
2022/01/20 03:39:14;;;;;;;30.95;17.50;;;;;;;-1.59;72.14;100992.88;4989899;28;20022;-70
2022/01/20 03:41:40;;;;;;;27.92;16.85;;;;;;;-1.32;72.30;101015.84;4990698;28;20046;-71
2022/01/20 03:44:05;;;;;;;26.33;14.80;;;;;;;-1.21;71.44;101004.47;4990095;28;20413;-70
2022/01/20 03:46:31;;;;;;;24.80;14.57;;;;;;;-1.49;71.70;100994.28;4991249;28;20093;-70
2022/01/20 03:49:07;;;;;;;42.83;18.10;;;;;;;-1.36;72.04;100995.88;4990507;28;20482;-71
2022/01/20 03:55:17;;;;;;;27.85;14.50;;;;;;;-1.23;72.15;101008.66;4961984;28;20390;-71
2022/01/20 03:57:42;;;;;;;24.40;16.27;;;;;;;-1.51;72.50;101001.03;4963863;28;20023;-76
2022/01/20 04:00:09;;;;;;;28.00;17.33;;;;;;;-1.35;72.73;100987.38;4958688;28;20051;-71
2022/01/20 04:02:34;;;;;;;22.98;14.90;;;;;;;-1.22;71.94;101002.69;4959990;28;20033;-71
2022/01/20 04:05:01;;;;;;;24.10;14.23;;;;;;;-1.25;71.88;100993.91;4960333;28;20039;-70
2022/01/20 04:07:27;;;;;;;22.77;14.40;;;;;;;-1.08;71.70;101006.03;4964090;28;20066;-71
2022/01/20 04:09:52;;;;;;;27.75;15.75;;;;;;;-1.29;71.44;100978.31;4969778;28;20049;-71
2022/01/20 04:12:17;;;;;;;24.23;15.48;;;;;;;-1.43;72.01;100979.19;4971322;28;20026;-71
2022/01/20 04:14:47;;;;;;;24.98;15.45;;;;;;;-1.18;71.74;100996.03;4970786;28;20054;-70
2022/01/20 04:17:18;;;;;;;27.15;14.18;;;;;;;-1.05;71.64;100993.38;4970927;28;20453;-73
2022/01/20 04:19:44;;;;;;;26.42;16.55;;;;;;;-1.03;70.97;100966.00;4956274;28;20086;-72
2022/01/20 04:22:09;;;;;;;26.75;15.50;;;;;;;-1.27;71.90;100974.09;4954876;28;20395;-71
2022/01/20 04:24:37;;;;;;;31.77;13.75;;;;;;;-0.96;71.10;100986.16;4966121;28;20514;-70
2022/01/20 04:27:03;;;;;;;36.95;16.10;;;;;;;-1.30;72.67;100985.94;4961325;28;20108;-71
2022/01/20 04:29:28;;;;;;;25.10;14.80;;;;;;;-1.34;72.23;100977.13;4955650;28;20525;-70
2022/01/20 04:31:54;;;;;;;51.03;16.67;;;;;;;-1.40;72.32;100969.09;4971490;28;20047;-70
2022/01/20 04:34:20;;;;;;;29.85;13.10;;;;;;;-1.34;72.33;100966.84;4954447;28;20143;-70
2022/01/20 04:36:49;;;;;;;35.33;15.55;;;;;;;-1.08;71.13;100963.19;4964335;28;20452;-70
2022/01/20 04:39:20;;;;;;;21.48;14.05;;;;;;;-0.99;70.74;100962.78;4957710;28;20077;-71
2022/01/20 04:41:53;;;;;;;24.73;14.98;;;;;;;-1.23;71.65;100987.16;4967956;28;20094;-71
2022/01/20 04:44:46;;;;;;;22.40;14.18;;;;;;;-1.17;71.03;100985.84;4960840;28;20050;-76
2022/01/20 04:57:52;;;;;;;25.25;14.02;;;;;;;-1.35;71.61;100980.53;5015677;28;20072;-70
2022/01/20 05:00:18;;;;;;;25.58;13.40;;;;;;;-1.15;71.03;100978.19;5012034;28;20401;-72
2022/01/20 05:02:43;;;;;;;25.15;15.52;;;;;;;-1.22;70.97;100973.50;5027060;28;20108;-71
2022/01/20 05:05:09;;;;;;;31.17;15.32;;;;;;;-1.26;71.08;100972.44;5025534;28;20038;-70
2022/01/20 05:07:35;;;;;;;32.22;17.10;;;;;;;-1.19;71.08;100973.69;5029703;28;20048;-72
2022/01/20 05:10:05;;;;;;;32.65;15.63;;;;;;;-1.26;70.80;100944.13;5026893;28;20037;-71
2022/01/20 05:13:22;;;;;;;25.95;14.48;;;;;;;-1.40;71.40;100971.66;5026555;28;20033;-70
2022/01/20 05:16:24;;;;;;;23.67;14.90;;;;;;;-0.93;70.19;100965.69;5025442;28;20494;-71
2022/01/20 05:18:49;;;;;;;27.00;13.23;;;;;;;-1.19;70.20;100974.56;5024543;28;20412;-72
2022/01/20 05:21:15;;;;;;;27.02;15.65;;;;;;;-1.10;70.68;100971.59;5033750;28;20072;-72
2022/01/20 05:24:03;;;;;;;29.88;16.50;;;;;;;-0.99;69.59;100961.91;5024933;28;20053;-71
2022/01/20 05:26:29;;;;;;;25.65;12.95;;;;;;;-1.36;70.31;100945.31;5018365;28;20133;-71
2022/01/20 05:28:55;;;;;;;28.13;15.75;;;;;;;-1.36;70.97;100964.97;5034475;28;20136;-71
2022/01/20 05:31:20;;;;;;;30.58;13.95;;;;;;;-1.21;70.52;100964.97;5023495;28;20077;-71
2022/01/20 05:33:46;;;;;;;28.23;12.77;;;;;;;-1.46;71.24;100939.53;5026420;28;20025;-74
2022/01/20 05:36:11;;;;;;;20.63;13.50;;;;;;;-1.51;71.60;100963.31;5025822;28;20042;-71
2022/01/20 05:38:37;;;;;;;27.75;13.98;;;;;;;-1.32;71.00;100943.78;5023436;28;20045;-72
2022/01/20 05:41:02;;;;;;;38.55;16.25;;;;;;;-1.51;71.05;100949.56;5032748;28;20409;-72
2022/01/20 05:43:28;;;;;;;31.95;15.40;;;;;;;-1.45;71.67;100936.16;5024949;28;20137;-71
2022/01/20 05:45:53;;;;;;;28.45;14.73;;;;;;;-1.36;71.47;100950.44;5026200;28;20037;-71
2022/01/20 05:48:31;;;;;;;24.08;14.52;;;;;;;-1.25;70.74;100930.44;5012804;28;21873;-71
2022/01/20 05:50:57;;;;;;;29.35;14.55;;;;;;;-1.24;70.77;100946.75;5018225;28;20053;-71
2022/01/20 05:53:23;;;;;;;28.08;15.63;;;;;;;-1.45;71.62;100952.50;5023597;28;20044;-73
2022/01/20 05:55:48;;;;;;;33.05;13.52;;;;;;;-1.29;71.78;100941.34;5025145;28;20037;-72
2022/01/20 05:58:14;;;;;;;25.48;14.63;;;;;;;-1.38;71.29;100905.72;5030961;28;20033;-71
2022/01/20 06:04:01;;;;;;;22.75;15.68;;;;;;;-1.13;71.01;100931.13;5002418;28;20128;-72
2022/01/20 06:06:26;;;;;;;41.90;16.58;;;;;;;-1.39;72.19;100936.50;5011196;28;20022;-76
2022/01/20 06:08:52;;;;;;;20.73;13.63;;;;;;;-1.21;71.18;100905.75;5012767;28;20034;-71
2022/01/20 06:11:57;;;;;;;27.58;17.25;;;;;;;-1.28;71.07;100936.31;5010819;28;20132;-70
2022/01/20 06:14:23;;;;;;;30.02;13.98;;;;;;;-1.22;71.25;100929.72;5012054;28;20386;-70
2022/01/20 06:16:49;;;;;;;40.13;16.42;;;;;;;-1.20;70.99;100923.84;5010514;28;20069;-69
2022/01/20 06:19:15;;;;;;;27.08;16.85;;;;;;;-1.22;70.57;100914.28;5012006;28;20104;-72
2022/01/20 06:21:41;;;;;;;27.25;15.65;;;;;;;-1.09;70.87;100925.34;5000145;28;20038;-72
2022/01/20 06:24:07;;;;;;;30.58;16.40;;;;;;;-1.12;70.24;100912.31;5009096;28;20050;-78
2022/01/20 06:26:32;;;;;;;27.60;17.15;;;;;;;-0.95;70.33;100920.06;5011422;28;20042;-72
2022/01/20 06:28:58;;;;;;;42.70;18.45;;;;;;;-1.21;70.46;100910.91;5008128;28;20114;-76
2022/01/20 06:31:23;;;;;;;26.65;15.77;;;;;;;-0.90;70.41;100918.63;5010751;28;20034;-72
2022/01/20 06:33:49;;;;;;;44.03;20.40;;;;;;;-0.98;70.09;100918.22;5010617;28;20414;-71
2022/01/20 06:36:14;;;;;;;31.50;19.90;;;;;;;-1.04;70.66;100909.25;5012372;28;20034;-70
2022/01/20 06:38:40;;;;;;;29.63;15.90;;;;;;;-0.87;70.02;100911.03;5010971;28;20466;-71
2022/01/20 06:41:05;;;;;;;28.23;15.45;;;;;;;-0.72;69.78;100908.44;5010946;28;20096;-70
2022/01/20 06:43:31;;;;;;;33.83;16.75;;;;;;;-0.86;69.66;100881.91;5014501;28;20042;-70
2022/01/20 06:46:17;;;;;;;41.97;17.63;;;;;;;-0.54;69.49;100900.75;5013174;28;20080;-70
2022/01/20 06:48:47;;;;;;;24.17;15.98;;;;;;;-0.89;69.37;100900.69;5013061;28;20180;-70
2022/01/20 06:57:57;;;;;;;38.03;17.80;;;;;;;-0.38;68.48;100893.00;5014915;28;20045;-70
2022/01/20 07:00:24;;;;;;;30.90;17.85;;;;;;;-0.45;69.20;100896.09;5011495;28;20057;-71
2022/01/20 07:02:51;;;;;;;32.53;16.90;;;;;;;-0.52;68.86;100905.19;5008483;28;20065;-71
2022/01/20 07:05:19;;;;;;;30.17;17.42;;;;;;;-0.58;68.19;100899.72;5007032;28;20393;-75
2022/01/20 07:07:59;;;;;;;33.45;17.35;;;;;;;-0.43;68.43;100913.41;5015901;28;20033;-72
2022/01/20 07:10:25;;;;;;;25.75;17.17;;;;;;;-0.37;68.07;100904.25;5018813;28;20129;-69
2022/01/20 07:13:32;;;;;;;37.55;14.15;;;;;;;-0.36;67.62;100898.25;5010511;28;20120;-71
2022/01/20 07:15:58;;;;;;;28.08;13.52;;;;;;;-0.17;67.78;100892.34;5006350;28;20052;-72
2022/01/20 07:18:23;;;;;;;27.63;14.40;;;;;;;-0.04;66.11;100867.25;5010587;28;20033;-71
2022/01/20 07:20:48;;;;;;;20.00;13.15;;;;;;;-0.26;66.45;100866.97;5005019;28;20042;-70
2022/01/20 07:23:25;;;;;;;30.52;15.77;;;;;;;-0.05;65.57;100868.09;5000183;28;20045;-71
2022/01/20 07:26:09;;;;;;;31.33;13.55;;;;;;;-0.02;65.27;100854.44;5028241;28;20617;-70
2022/01/20 07:28:34;;;;;;;22.42;14.60;;;;;;;0.29;63.58;100855.94;5003130;28;20441;-71
2022/01/20 07:31:00;;;;;;;29.30;13.65;;;;;;;0.33;63.58;100847.56;5026454;28;20037;-71
2022/01/20 07:33:26;;;;;;;29.20;13.55;;;;;;;0.32;63.13;100835.44;5025737;28;20041;-71
2022/01/20 07:35:52;;;;;;;24.55;14.95;;;;;;;0.21;63.60;100847.81;5023803;28;20051;-73
2022/01/20 07:38:17;;;;;;;29.05;13.40;;;;;;;0.21;63.16;100822.00;5026062;28;20118;-71
2022/01/20 07:40:43;;;;;;;19.50;12.45;;;;;;;0.54;63.06;100842.50;5024856;28;20042;-71
2022/01/20 07:43:08;;;;;;;20.27;11.40;;;;;;;0.14;63.48;100845.75;5023241;28;20037;-71
2022/01/20 07:45:34;;;;;;;24.98;14.75;;;;;;;0.12;62.96;100821.59;5025494;28;20022;-72
2022/01/20 07:48:00;;;;;;;26.75;14.02;;;;;;;0.46;62.01;100833.53;5026136;28;20050;-71
2022/01/20 07:50:26;;;;;;;26.17;14.02;;;;;;;0.44;62.38;100841.19;5023965;28;20053;-73
2022/01/20 07:52:51;;;;;;;21.85;13.60;;;;;;;0.04;62.81;100821.19;5019763;28;20045;-73
2022/01/20 07:55:17;;;;;;;25.65;14.55;;;;;;;0.47;61.75;100824.94;5026337;28;20056;-73
2022/01/20 07:57:42;;;;;;;24.10;14.70;;;;;;;0.68;61.21;100830.22;5025663;28;20025;-78
2022/01/20 08:00:09;;;;;;;23.88;12.90;;;;;;;0.43;62.38;100830.81;5009222;28;20094;-73
2022/01/20 08:02:34;;;;;;;26.55;13.73;;;;;;;0.62;61.54;100834.31;5009772;28;20056;-72
2022/01/20 08:05:00;;;;;;;34.40;14.95;;;;;;;0.87;60.55;100837.13;5025374;28;20065;-76
2022/01/20 08:07:25;;;;;;;20.98;10.73;;;;;;;0.93;60.41;100827.97;5024999;28;20121;-73
2022/01/20 08:10:12;;;;;;;22.83;12.60;;;;;;;0.85;60.40;100842.25;5018666;28;20029;-73
2022/01/20 08:12:37;;;;;;;36.50;12.80;;;;;;;1.12;59.30;100819.34;5014019;28;20069;-72
2022/01/20 08:15:04;;;;;;;24.70;12.13;;;;;;;1.27;58.67;100819.16;5023262;28;20073;-73
2022/01/20 08:17:29;;;;;;;24.55;11.55;;;;;;;1.40;58.09;100805.03;5018959;28;20554;-72
2022/01/20 08:19:55;;;;;;;22.58;10.75;;;;;;;1.68;57.72;100813.16;5020435;28;20053;-79
2022/01/20 08:22:20;;;;;;;26.33;12.07;;;;;;;1.52;58.13;100812.44;5015178;28;20042;-77
2022/01/20 08:24:51;;;;;;;21.17;10.82;;;;;;;1.99;56.92;100809.28;5012578;28;20493;-74
2022/01/20 08:27:17;;;;;;;18.33;10.93;;;;;;;1.71;57.50;100789.16;5026155;28;20533;-72
2022/01/20 08:29:43;;;;;;;15.65;11.02;;;;;;;2.15;56.00;100812.47;5021244;28;20152;-74
2022/01/20 08:32:09;;;;;;;32.13;12.10;;;;;;;2.20;55.75;100811.84;5006988;28;20569;-72
2022/01/20 08:34:34;;;;;;;23.63;9.43;;;;;;;2.03;55.60;100815.44;5020078;28;20065;-72
2022/01/20 08:37:00;;;;;;;25.67;10.75;;;;;;;2.30;54.02;100810.50;5014043;28;20095;-71
2022/01/20 08:41:59;;;;;;;18.27;8.85;;;;;;;2.36;53.94;100812.44;5007914;28;20032;-71
2022/01/20 08:44:25;;;;;;;17.85;12.40;;;;;;;2.35;54.78;100802.94;5008609;28;20093;-73
2022/01/20 08:46:52;;;;;;;26.35;10.95;;;;;;;2.44;54.64;100783.44;4998322;28;20096;-72
2022/01/20 08:49:18;;;;;;;27.02;13.45;;;;;;;2.48;54.86;100785.34;5004867;28;20074;-72
2022/01/20 08:51:43;;;;;;;23.38;10.07;;;;;;;2.81;53.67;100794.31;5008034;28;20064;-74
2022/01/20 08:54:09;;;;;;;16.92;10.02;;;;;;;2.69;53.62;100781.78;5004726;28;20539;-73
2022/01/20 08:56:35;;;;;;;21.90;11.20;;;;;;;2.98;53.27;100797.56;4995678;28;20474;-73
2022/01/20 08:59:07;;;;;;;25.55;12.55;;;;;;;3.08;52.77;100779.78;5012082;28;20390;-73
2022/01/20 09:01:38;;;;;;;23.33;9.40;;;;;;;2.98;52.41;100784.59;5005394;28;20049;-72
2022/01/20 09:04:04;;;;;;;20.92;11.35;;;;;;;3.00;51.86;100765.69;5010458;28;20478;-73
2022/01/20 09:06:29;;;;;;;28.45;10.65;;;;;;;3.23;50.66;100758.72;5010895;28;20026;-81
2022/01/20 09:08:55;;;;;;;16.02;9.82;;;;;;;3.65;50.31;100760.13;5011360;28;20525;-72
2022/01/20 09:11:24;;;;;;;22.17;9.70;;;;;;;3.73;50.46;100759.56;5010370;28;20129;-75
2022/01/20 09:16:36;;;;;;;25.60;12.95;;;;;;;3.99;50.35;100743.94;5005825;28;20165;-72
2022/01/20 09:19:02;;;;;;;35.22;11.70;;;;;;;4.21;50.38;100761.06;5010572;28;20428;-72
2022/01/20 09:21:28;;;;;;;24.83;11.88;;;;;;;4.18;50.15;100761.88;4992271;28;20061;-72
2022/01/20 09:23:55;;;;;;;18.65;11.52;;;;;;;4.12;50.40;100758.19;5009126;28;20129;-73
2022/01/20 09:26:21;;;;;;;29.80;13.07;;;;;;;3.89;50.80;100731.53;5010418;28;20064;-72
2022/01/20 09:28:47;;;;;;;20.38;13.13;;;;;;;4.19;49.88;100754.94;5010402;28;20046;-85
2022/01/20 09:31:13;;;;;;;19.45;11.13;;;;;;;4.30;50.17;100719.81;5009004;28;20041;-72
2022/01/20 09:33:39;;;;;;;22.00;12.95;;;;;;;4.37;48.62;100752.06;5011249;28;20096;-72
2022/01/20 09:36:09;;;;;;;19.58;12.52;;;;;;;3.96;48.58;100718.78;5010607;28;20046;-73
2022/01/20 09:38:35;;;;;;;23.85;11.13;;;;;;;4.11;48.09;100735.66;5009683;28;20042;-74
2022/01/20 09:41:01;;;;;;;16.45;10.52;;;;;;;4.46;47.45;100722.88;5004344;28;20041;-80
2022/01/20 09:43:26;;;;;;;23.83;11.48;;;;;;;4.39;47.52;100698.44;5010338;28;20530;-76
2022/01/20 09:45:55;;;;;;;16.95;9.07;;;;;;;4.00;47.83;100694.69;5009981;28;20033;-75
2022/01/20 09:48:25;;;;;;;15.27;9.68;;;;;;;4.54;47.40;100704.09;5004160;28;20026;-73
2022/01/20 09:50:52;;;;;;;18.08;10.95;;;;;;;4.40;47.95;100698.47;5009483;28;20050;-73
2022/01/20 09:53:17;;;;;;;20.67;11.05;;;;;;;4.70;47.70;100694.09;5002188;28;20050;-72
2022/01/20 09:55:45;;;;;;;21.55;11.30;;;;;;;4.50;48.12;100685.75;4996743;28;20482;-73
2022/01/20 09:58:12;;;;;;;26.85;10.88;;;;;;;4.37;48.53;100654.22;5001238;28;20100;-74
2022/01/20 10:00:40;;;;;;;22.67;11.43;;;;;;;4.60;48.25;100654.00;5007732;28;20040;-73
2022/01/20 10:03:10;;;;;;;17.15;11.15;;;;;;;4.22;48.94;100643.38;5010304;28;20042;-71
2022/01/20 10:05:35;;;;;;;25.73;10.70;;;;;;;4.45;49.41;100649.25;5008985;28;20045;-72
2022/01/20 10:08:07;;;;;;;16.73;10.25;;;;;;;4.68;49.32;100641.19;5009840;28;20402;-72
2022/01/20 10:10:44;;;;;;;21.42;9.00;;;;;;;4.42;49.25;100633.56;5010605;28;20577;-74
2022/01/20 10:13:11;;;;;;;19.08;11.32;;;;;;;4.53;49.04;100618.28;5008742;28;20034;-74
2022/01/20 10:15:38;;;;;;;17.10;10.63;;;;;;;4.49;48.75;100622.50;4996563;28;20040;-73
2022/01/20 10:18:12;;;;;;;27.17;11.07;;;;;;;4.52;48.47;100630.41;4997461;28;20046;-75
2022/01/20 10:20:50;;;;;;;21.15;12.02;;;;;;;4.86;47.96;100633.91;5027326;28;20054;-73
2022/01/20 10:23:30;;;;;;;16.05;9.60;;;;;;;4.74;48.07;100633.59;5009786;28;20046;-74
2022/01/20 10:26:06;;;;;;;21.70;10.27;;;;;;;4.59;47.76;100634.06;5007922;28;20111;-71
2022/01/20 10:28:50;;;;;;;20.08;13.15;;;;;;;4.57;48.52;100617.53;5009833;28;20052;-71
2022/01/20 10:31:19;;;;;;;25.27;10.07;;;;;;;5.01;47.84;100615.22;4990285;28;20046;-73
2022/01/20 10:36:14;;;;;;;28.77;10.40;;;;;;;4.63;48.03;100623.75;5006049;28;20626;-76
2022/01/20 10:38:54;;;;;;;25.90;10.65;;;;;;;4.85;48.57;100613.97;4990353;28;20104;-70
2022/01/20 10:41:46;;;;;;;24.55;11.75;;;;;;;4.67;48.36;100629.94;5002973;28;20065;-72
2022/01/20 10:44:14;;;;;;;19.75;10.57;;;;;;;4.77;48.32;100616.34;5006079;28;20081;-73
2022/01/20 10:46:51;;;;;;;16.40;10.15;;;;;;;4.75;48.28;100620.63;5000496;28;20053;-73
2022/01/20 10:49:17;;;;;;;27.63;11.10;;;;;;;5.19;46.99;100584.47;5005764;28;20089;-72
2022/01/20 10:51:43;;;;;;;16.83;10.40;;;;;;;5.25;46.63;100596.78;5005694;28;20117;-72
2022/01/20 10:54:13;;;;;;;18.88;11.00;;;;;;;5.59;45.69;100611.44;5018138;28;20121;-72
2022/01/20 10:56:59;;;;;;;18.10;11.27;;;;;;;5.99;45.67;100601.94;5009557;28;20089;-71
2022/01/20 10:59:25;;;;;;;29.42;12.57;;;;;;;6.39;44.66;100576.75;4995925;28;20046;-72
2022/01/20 11:02:09;;;;;;;20.27;10.10;;;;;;;6.28;45.15;100589.56;4996500;28;20034;-73
2022/01/20 11:04:39;;;;;;;20.75;11.82;;;;;;;6.29;45.23;100585.22;5005082;28;20141;-73
2022/01/20 11:07:06;;;;;;;18.05;12.45;;;;;;;7.02;43.26;100569.16;5001078;28;20034;-74
2022/01/20 11:09:37;;;;;;;23.92;11.60;;;;;;;6.96;42.98;100570.81;5005321;28;20034;-72
2022/01/20 11:12:04;;;;;;;22.42;10.68;;;;;;;6.54;43.78;100574.41;4995305;28;20100;-74
2022/01/20 11:14:31;;;;;;;23.80;10.07;;;;;;;6.89;43.71;100570.69;4997513;28;20346;-72
2022/01/20 11:16:58;;;;;;;23.38;11.20;;;;;;;7.10;43.18;100567.59;5001425;28;20458;-71
2022/01/20 11:19:25;;;;;;;22.40;12.60;;;;;;;6.25;44.23;100547.81;5004218;28;20046;-73
2022/01/20 11:21:51;;;;;;;29.40;11.30;;;;;;;6.31;43.97;100558.34;4991422;28;20060;-72
2022/01/20 11:24:23;;;;;;;26.10;9.90;;;;;;;6.13;44.38;100556.25;4994467;28;20081;-73
2022/01/20 11:26:54;;;;;;;19.90;11.27;;;;;;;6.38;43.89;100546.31;5003134;28;20120;-71
2022/01/20 11:29:22;;;;;;;25.98;10.85;;;;;;;6.23;44.27;100543.41;4994335;28;20077;-71
2022/01/20 11:31:49;;;;;;;28.88;10.02;;;;;;;6.23;44.04;100523.44;5005295;28;20040;-71
2022/01/20 11:34:16;;;;;;;18.08;10.05;;;;;;;6.41;44.56;100537.66;5004315;28;20046;-72
2022/01/20 11:36:42;;;;;;;18.52;10.75;;;;;;;6.70;43.30;100546.91;5006544;28;20462;-72
2022/01/20 11:39:09;;;;;;;16.90;9.93;;;;;;;6.82;43.65;100545.38;5004156;28;20062;-72
2022/01/20 11:41:39;;;;;;;16.70;10.60;;;;;;;6.45;44.43;100542.97;5004848;28;20073;-72
2022/01/20 11:44:11;;;;;;;17.13;10.68;;;;;;;6.60;44.16;100505.00;5003653;28;20203;-71
2022/01/20 11:46:39;;;;;;;26.48;11.00;;;;;;;6.47;44.89;100528.22;4997334;28;20114;-73
2022/01/20 11:49:10;;;;;;;19.60;11.73;;;;;;;6.33;45.14;100524.50;4991128;28;20041;-72
2022/01/20 11:51:42;;;;;;;21.40;11.27;;;;;;;6.39;44.97;100519.41;4986414;28;20062;-70
2022/01/20 11:54:08;;;;;;;21.30;11.15;;;;;;;6.15;45.54;100519.78;4987519;28;20091;-73
2022/01/20 11:56:40;;;;;;;17.83;13.20;;;;;;;6.11;45.69;100502.34;4986512;28;20050;-74
2022/01/20 11:59:10;;;;;;;19.13;10.95;;;;;;;5.88;46.17;100509.69;4991286;28;20129;-72
2022/01/20 12:01:52;;;;;;;16.45;11.68;;;;;;;5.97;46.44;100498.59;4985417;28;20087;-73
2022/01/20 12:04:33;;;;;;;32.83;10.90;;;;;;;5.85;46.51;100494.88;4975379;28;20042;-70
2022/01/20 12:06:59;;;;;;;20.52;11.75;;;;;;;5.91;46.65;100502.81;4987854;28;20374;-71
2022/01/20 12:09:33;;;;;;;20.15;12.77;;;;;;;6.09;46.40;100499.72;4992842;28;20038;-70
2022/01/20 12:11:59;;;;;;;27.00;12.77;;;;;;;5.87;47.75;100479.28;4980226;28;20101;-72
2022/01/20 12:14:38;;;;;;;22.27;13.57;;;;;;;5.89;46.83;100491.47;4983856;28;20042;-77
2022/01/20 12:17:11;;;;;;;21.17;12.93;;;;;;;6.09;47.13;100478.88;4993402;28;20042;-71
2022/01/20 12:19:38;;;;;;;19.58;13.77;;;;;;;6.07;47.36;100456.28;4989706;28;20042;-71
2022/01/20 12:22:04;;;;;;;18.50;11.32;;;;;;;6.20;47.31;100486.03;4986942;28;20033;-71
2022/01/20 12:24:35;;;;;;;28.63;11.18;;;;;;;6.08;47.49;100466.69;4972426;28;20074;-72
2022/01/20 12:27:00;;;;;;;19.75;12.48;;;;;;;6.17;47.08;100467.72;4982047;28;20057;-71
2022/01/20 12:29:36;;;;;;;19.98;11.77;;;;;;;6.41;46.80;100467.28;4992111;28;20471;-71
2022/01/20 12:32:11;;;;;;;19.20;12.23;;;;;;;6.26;47.19;100458.34;4992200;28;20088;-76
2022/01/20 12:34:36;;;;;;;32.15;13.23;;;;;;;6.33;47.50;100449.78;4983449;28;20065;-68
2022/01/20 12:37:02;;;;;;;19.02;12.23;;;;;;;6.55;46.74;100461.50;4984947;28;20026;-71
2022/01/20 12:39:33;;;;;;;20.13;12.25;;;;;;;6.42;46.97;100459.50;4981750;28;20172;-71
2022/01/20 12:42:05;;;;;;;21.98;11.57;;;;;;;6.60;47.14;100469.34;4991350;28;20084;-71
2022/01/20 12:44:54;;;;;;;17.63;10.32;;;;;;;6.67;46.40;100459.91;4989032;28;20050;-70
2022/01/20 12:47:28;;;;;;;16.40;9.98;;;;;;;6.70;46.64;100473.03;4974384;28;20102;-71
2022/01/20 12:49:56;;;;;;;32.67;10.75;;;;;;;6.90;46.42;100470.72;4984176;28;20589;-71
2022/01/20 12:52:48;;;;;;;20.65;10.48;;;;;;;6.83;46.26;100474.09;4987486;28;20058;-70
2022/01/20 12:55:14;;;;;;;17.05;9.63;;;;;;;7.24;45.81;100472.13;4985270;28;20047;-71
2022/01/20 13:00:09;;;;;;;26.15;9.57;;;;;;;7.35;45.50;100465.31;5013569;27;20634;-68
2022/01/20 13:02:35;;;;;;;24.67;9.50;;;;;;;7.42;45.83;100447.97;4992474;28;20117;-71
2022/01/20 13:05:03;;;;;;;15.00;8.32;;;;;;;7.33;45.81;100450.50;5003652;28;20133;-69
2022/01/20 13:07:37;;;;;;;23.10;9.77;;;;;;;7.58;45.40;100425.56;5011829;28;20168;-69